createdAt,value
2019-02-16T00:00:20.914Z,102039.38
2019-02-16T00:02:49.334Z,102041.06
2019-02-16T00:05:17.853Z,102040.58
2019-02-16T00:07:46.262Z,102040.55
2019-02-16T00:10:14.793Z,102033.55
2019-02-16T00:12:43.196Z,102033.03
2019-02-16T00:15:11.941Z,102034.34
2019-02-16T00:17:40.418Z,102033.45
2019-02-16T00:20:09.621Z,102040.80
2019-02-16T00:22:38.020Z,102039.42
2019-02-16T00:25:06.627Z,102039.80
2019-02-16T00:27:35.095Z,102031.91
2019-02-16T00:30:04.198Z,102033.58
2019-02-16T00:32:32.820Z,102031.80
2019-02-16T00:35:01.240Z,102031.34
2019-02-16T00:37:29.682Z,102036.08
2019-02-16T00:39:58.297Z,102026.47
2019-02-16T00:42:26.766Z,102023.83
2019-02-16T00:44:55.183Z,102027.29
2019-02-16T00:47:23.659Z,102031.98
2019-02-16T00:49:52.061Z,102021.11
2019-02-16T00:52:20.583Z,102023.68
2019-02-16T00:54:49.025Z,102030.60
2019-02-16T00:57:17.466Z,102025.77
2019-02-16T00:59:45.901Z,102023.12
2019-02-16T01:02:14.337Z,102025.69
2019-02-16T01:04:42.754Z,102026.13
2019-02-16T01:07:11.187Z,102023.00
2019-02-16T01:09:39.602Z,102023.00
2019-02-16T01:12:08.062Z,102019.02
2019-02-16T01:14:36.469Z,102013.36
2019-02-16T01:17:04.968Z,102012.46
2019-02-16T01:19:33.413Z,102006.32
2019-02-16T01:22:01.809Z,102013.69
2019-02-16T01:24:30.269Z,102014.13
2019-02-16T01:26:58.680Z,102009.30
2019-02-16T01:29:27.129Z,102011.00
2019-02-16T01:31:55.550Z,102012.27
2019-02-16T01:34:23.983Z,102011.38
2019-02-16T01:36:52.400Z,102002.59
2019-02-16T01:39:20.852Z,102008.20
2019-02-16T01:41:49.256Z,102003.39
2019-02-16T01:44:17.694Z,101987.20
2019-02-16T01:46:46.108Z,101991.55
2019-02-16T01:49:14.543Z,101994.56
2019-02-16T01:51:43.080Z,101989.31
2019-02-16T01:54:11.522Z,101992.33
2019-02-16T01:56:39.935Z,101988.83
2019-02-16T01:59:08.361Z,101990.95
2019-02-16T02:01:36.775Z,101979.63
2019-02-16T02:04:05.181Z,101977.88
2019-02-16T02:06:33.615Z,101980.41
2019-02-16T02:09:02.126Z,101983.41
2019-02-16T02:11:30.702Z,101984.27
2019-02-16T02:13:59.134Z,101982.02
2019-02-16T02:16:27.571Z,101975.51
2019-02-16T02:18:55.986Z,101980.67
2019-02-16T02:21:24.443Z,101975.87
2019-02-16T02:23:52.926Z,101968.92
2019-02-16T02:26:21.375Z,101977.98
2019-02-16T02:28:49.790Z,101976.20
2019-02-16T02:31:18.291Z,101982.30
2019-02-16T02:33:46.702Z,101982.66
2019-02-16T02:36:15.139Z,101984.77
2019-02-16T02:38:46.629Z,101986.06
2019-02-16T02:41:15.080Z,101983.41
2019-02-16T02:43:43.488Z,101987.23
2019-02-16T02:46:11.944Z,101986.78
2019-02-16T02:48:40.367Z,101979.87
2019-02-16T02:51:08.804Z,101981.58
2019-02-16T02:53:37.299Z,101980.67
2019-02-16T02:56:05.757Z,101976.73
2019-02-16T02:58:34.179Z,101979.78
2019-02-16T03:01:02.724Z,101977.58
2019-02-16T03:03:31.174Z,101976.23
2019-02-16T03:05:59.580Z,101977.09
2019-02-16T03:08:28.020Z,101979.23
2019-02-16T03:10:56.561Z,101967.03
2019-02-16T03:13:25.007Z,101969.14
2019-02-16T03:15:53.447Z,101964.34
2019-02-16T03:18:21.878Z,101963.90
2019-02-16T03:20:50.401Z,101958.20
2019-02-16T03:23:20.077Z,101961.70
2019-02-16T03:26:03.454Z,101959.05
2019-02-16T03:28:41.149Z,101960.30
2019-02-16T03:31:15.707Z,101963.27
2019-02-16T03:33:47.512Z,101963.72
2019-02-16T03:36:37.384Z,101956.76
2019-02-16T03:39:09.009Z,101962.00
2019-02-16T03:41:37.426Z,101961.11
2019-02-16T03:44:05.882Z,101952.36
2019-02-16T03:46:34.311Z,101951.02
2019-02-16T03:49:02.747Z,101952.31
2019-02-16T03:51:31.173Z,101954.86
2019-02-16T03:53:59.610Z,101952.66
2019-02-16T03:56:28.101Z,101951.32
2019-02-16T03:58:56.685Z,101950.46
2019-02-16T04:01:25.097Z,101953.47
2019-02-16T04:03:53.534Z,101947.38
2019-02-16T04:06:21.963Z,101943.83
2019-02-16T04:08:50.388Z,101943.77
2019-02-16T04:11:18.793Z,101940.72
2019-02-16T04:13:47.227Z,101943.28
2019-02-16T04:16:15.686Z,101943.28
2019-02-16T04:18:44.169Z,101946.72
2019-02-16T04:21:12.641Z,101945.41
2019-02-16T04:23:41.124Z,101944.07
2019-02-16T04:26:09.603Z,101943.62
2019-02-16T04:28:38.051Z,101936.13
2019-02-16T04:31:06.461Z,101938.67
2019-02-16T04:33:34.896Z,101940.88
2019-02-16T04:36:03.302Z,101941.28
2019-02-16T04:38:31.809Z,101931.69
2019-02-16T04:41:00.239Z,101932.58
2019-02-16T04:43:28.635Z,101935.98
2019-02-16T04:45:57.162Z,101931.13
2019-02-16T04:48:25.579Z,101925.94
2019-02-16T04:50:54.083Z,101924.64
2019-02-16T04:53:22.494Z,101924.63
2019-02-16T04:55:50.940Z,101923.27
2019-02-16T04:58:19.358Z,101915.78
2019-02-16T05:00:48.039Z,101911.87
2019-02-16T05:03:16.454Z,101910.08
2019-02-16T05:05:44.908Z,101916.14
2019-02-16T05:08:13.346Z,101917.42
2019-02-16T05:10:41.797Z,101919.13
2019-02-16T05:13:10.248Z,101926.82
2019-02-16T05:15:38.665Z,101926.81
2019-02-16T05:18:07.080Z,101931.91
2019-02-16T05:20:35.529Z,101927.96
2019-02-16T05:23:03.955Z,101928.77
2019-02-16T05:25:32.383Z,101933.95
2019-02-16T05:28:00.801Z,101938.70
2019-02-16T05:30:29.205Z,101926.56
2019-02-16T05:32:57.642Z,101933.04
2019-02-16T05:35:26.080Z,101931.29
2019-02-16T05:37:54.505Z,101931.63
2019-02-16T05:40:22.918Z,101928.54
2019-02-16T05:42:51.358Z,101921.98
2019-02-16T05:45:19.771Z,101929.73
2019-02-16T05:47:48.212Z,101928.37
2019-02-16T05:50:16.708Z,101926.17
2019-02-16T05:52:53.791Z,101928.72
2019-02-16T05:55:15.274Z,101930.45
2019-02-16T05:57:43.771Z,101932.11
2019-02-16T06:00:13.544Z,101933.84
2019-02-16T06:02:41.986Z,101930.81
2019-02-16T06:05:10.477Z,101932.95
2019-02-16T06:07:38.959Z,101929.91
2019-02-16T06:10:08.582Z,101932.94
2019-02-16T06:12:36.997Z,101933.80
2019-02-16T06:15:07.734Z,101929.05
2019-02-16T06:17:36.243Z,101931.94
2019-02-16T06:20:06.696Z,101934.08
2019-02-16T06:22:35.146Z,101940.97
2019-02-16T06:25:04.112Z,101937.07
2019-02-16T06:27:32.572Z,101934.87
2019-02-16T06:30:00.987Z,101938.32
2019-02-16T06:32:29.443Z,101947.80
2019-02-16T06:34:59.494Z,101940.80
2019-02-16T06:37:27.911Z,101944.63
2019-02-16T06:39:56.348Z,101948.46
2019-02-16T06:42:24.767Z,101943.27
2019-02-16T06:44:53.242Z,101948.02
2019-02-16T06:47:21.669Z,101941.06
2019-02-16T06:49:50.111Z,101939.31
2019-02-16T06:52:18.572Z,101947.84
2019-02-16T06:54:47.082Z,101949.98
2019-02-16T06:57:17.166Z,101958.66
2019-02-16T06:59:45.604Z,101968.60
2019-02-16T07:02:14.299Z,101967.77
2019-02-16T07:04:42.839Z,101972.61
2019-02-16T07:07:11.249Z,101966.58
2019-02-16T07:09:39.794Z,101967.88
2019-02-16T07:12:08.213Z,101971.36
2019-02-16T07:14:36.692Z,101973.96
2019-02-16T07:17:06.797Z,101973.12
2019-02-16T07:19:36.938Z,101977.52
2019-02-16T07:22:05.319Z,101972.39
2019-02-16T07:24:33.780Z,101981.03
2019-02-16T07:27:02.285Z,101985.38
2019-02-16T07:29:30.745Z,101989.72
2019-02-16T07:31:59.168Z,101994.86
2019-02-16T07:34:27.636Z,101998.35
2019-02-16T07:36:56.030Z,101997.45
2019-02-16T07:39:24.580Z,102001.40
2019-02-16T07:41:53.077Z,101997.17
2019-02-16T07:44:29.112Z,101998.47
2019-02-16T07:47:01.643Z,101999.77
2019-02-16T07:49:46.827Z,102002.83
2019-02-16T07:52:29.081Z,102003.39
2019-02-16T07:55:04.679Z,102003.41
2019-02-16T07:57:40.846Z,102006.11
2019-02-16T08:00:14.208Z,102004.41
2019-02-16T08:02:55.854Z,101998.88
2019-02-16T08:05:34.648Z,101996.75
2019-02-16T08:08:04.711Z,101999.84
2019-02-16T08:10:46.969Z,101997.75
2019-02-16T08:13:19.825Z,102003.02
2019-02-16T08:16:07.537Z,102001.83
2019-02-16T08:18:37.752Z,102004.08
2019-02-16T08:21:07.933Z,101998.55
2019-02-16T08:23:43.721Z,102001.26
2019-02-16T08:26:32.204Z,102004.86
2019-02-16T08:29:02.283Z,102013.62
2019-02-16T08:31:32.410Z,102016.34
2019-02-16T08:34:02.534Z,102011.64
2019-02-16T08:36:35.761Z,102006.98
2019-02-16T08:39:06.394Z,102010.55
2019-02-16T08:41:52.742Z,102008.05
2019-02-16T08:44:25.506Z,102008.16
2019-02-16T08:47:10.934Z,102006.56
2019-02-16T08:49:46.462Z,101995.38
2019-02-16T08:52:19.270Z,101998.12
2019-02-16T08:54:49.319Z,102001.32
2019-02-16T08:57:25.645Z,102002.36
2019-02-16T08:59:55.728Z,101999.02
2019-02-16T09:02:31.534Z,102001.80
2019-02-16T09:05:01.643Z,101993.73
2019-02-16T09:07:34.616Z,101983.87
2019-02-16T09:10:13.662Z,101980.55
2019-02-16T09:12:50.011Z,101985.03
2019-02-16T09:15:35.504Z,101978.24
2019-02-16T09:18:21.863Z,101982.77
2019-02-16T09:20:51.939Z,101987.28
2019-02-16T09:23:25.026Z,101986.55
2019-02-16T09:26:11.694Z,101994.19
2019-02-16T09:28:47.578Z,101986.98
2019-02-16T09:31:17.644Z,101984.55
2019-02-16T09:33:50.277Z,101976.47
2019-02-16T09:36:32.366Z,101981.44
2019-02-16T09:39:05.320Z,101986.79
2019-02-16T09:41:41.331Z,101990.86
2019-02-16T09:44:23.849Z,101990.98
2019-02-16T09:46:53.956Z,101998.11
2019-02-16T09:49:24.066Z,101997.81
2019-02-16T09:52:06.286Z,101997.52
2019-02-16T09:54:38.835Z,101995.05
2019-02-16T09:57:14.391Z,101996.92
2019-02-16T09:59:47.187Z,101997.49
2019-02-16T10:02:17.337Z,102001.08
2019-02-16T10:04:47.437Z,102011.27
2019-02-16T10:07:17.536Z,102005.30
2019-02-16T10:09:53.389Z,102000.19
2019-02-16T10:12:29.386Z,101998.10
2019-02-16T10:15:16.257Z,101993.38
2019-02-16T10:17:52.570Z,101996.97
2019-02-16T10:20:31.423Z,101998.39
2019-02-16T10:23:17.016Z,101993.66
2019-02-16T10:26:01.793Z,101999.00
2019-02-16T10:28:40.833Z,101993.40
2019-02-16T10:31:10.930Z,101990.82
2019-02-16T10:33:41.002Z,101990.48
2019-02-16T10:36:11.094Z,101994.44
2019-02-16T10:38:53.137Z,101991.83
2019-02-16T10:41:28.925Z,101988.36
2019-02-16T10:44:15.084Z,101990.98
2019-02-16T10:46:45.222Z,101988.33
2019-02-16T10:49:21.118Z,101982.63
2019-02-16T10:52:00.515Z,101983.46
2019-02-16T10:54:45.676Z,101975.55
2019-02-16T10:57:21.651Z,101978.14
2019-02-16T10:59:54.597Z,101970.25
2019-02-16T11:02:30.493Z,101967.59
2019-02-16T11:05:06.353Z,101968.33
2019-02-16T11:07:45.630Z,101970.48
2019-02-16T11:10:15.838Z,101974.78
2019-02-16T11:12:48.882Z,101971.65
2019-02-16T11:15:21.757Z,101964.92
2019-02-16T11:18:06.900Z,101965.68
2019-02-16T11:20:42.825Z,101948.94
2019-02-16T11:23:18.757Z,101959.81
2019-02-16T11:25:48.825Z,101961.94
2019-02-16T11:28:28.298Z,101949.94
2019-02-16T11:30:58.375Z,101953.23
2019-02-16T11:33:34.446Z,101951.27
2019-02-16T11:36:10.277Z,101948.37
2019-02-16T11:38:46.262Z,101946.45
2019-02-16T11:41:18.807Z,101945.31
2019-02-16T11:43:48.302Z,101950.95
2019-02-16T11:46:30.370Z,101950.56
2019-02-16T11:49:09.634Z,101950.62
2019-02-16T11:51:39.904Z,101949.79
2019-02-16T11:54:13.103Z,101949.98
2019-02-16T11:56:45.930Z,101945.55
2019-02-16T11:59:31.795Z,101946.10
2019-02-16T12:02:07.430Z,101934.06
2019-02-16T12:04:37.521Z,101932.31
2019-02-16T12:07:19.576Z,101930.97
2019-02-16T12:09:52.121Z,101931.72
2019-02-16T12:12:22.286Z,101927.55
2019-02-16T12:14:52.374Z,101925.50
2019-02-16T12:17:38.505Z,101917.04
2019-02-16T12:20:19.468Z,101911.30
2019-02-16T12:22:49.524Z,101916.62
2019-02-16T12:25:25.239Z,101907.43
2019-02-16T12:27:55.310Z,101906.20
2019-02-16T12:30:37.477Z,101897.25
2019-02-16T12:33:10.536Z,101896.77
2019-02-16T12:35:43.146Z,101896.57
2019-02-16T12:38:19.151Z,101894.09
2019-02-16T12:41:04.393Z,101893.53
2019-02-16T12:43:34.484Z,101898.59
2019-02-16T12:46:07.582Z,101888.57
2019-02-16T12:48:55.793Z,101892.41
2019-02-16T12:51:35.076Z,101891.43
2019-02-16T12:54:21.522Z,101891.84
2019-02-16T12:56:57.534Z,101881.66
2019-02-16T12:59:33.107Z,101885.33
2019-02-16T13:02:18.634Z,101882.69
2019-02-16T13:04:48.784Z,101879.49
2019-02-16T13:07:22.002Z,101870.00
2019-02-16T13:10:01.119Z,101880.64
2019-02-16T13:12:37.239Z,101880.48
2019-02-16T13:15:12.094Z,101883.57
2019-02-16T13:17:42.232Z,101876.74
2019-02-16T13:20:15.396Z,101878.06
2019-02-16T13:22:45.535Z,101879.49
2019-02-16T13:25:24.500Z,101882.59
2019-02-16T13:27:58.871Z,101874.39
2019-02-16T13:30:28.976Z,101873.71
2019-02-16T13:33:11.074Z,101873.27
2019-02-16T13:35:59.372Z,101875.89
2019-02-16T13:38:32.329Z,101869.73
2019-02-16T13:41:14.129Z,101874.55
2019-02-16T13:43:46.699Z,101880.98
2019-02-16T13:46:19.557Z,101879.80
2019-02-16T13:48:58.408Z,101880.03
2019-02-16T13:51:28.506Z,101880.88
2019-02-16T13:54:10.649Z,101862.77
2019-02-16T13:56:46.522Z,101865.86
2019-02-16T13:59:16.634Z,101873.81
2019-02-16T14:02:02.974Z,101868.33
2019-02-16T14:04:35.867Z,101868.08
2019-02-16T14:07:11.703Z,101870.98
2019-02-16T14:09:58.039Z,101870.74
2019-02-16T14:12:30.705Z,101866.16
2019-02-16T14:15:06.473Z,101864.16
2019-02-16T14:17:46.859Z,101865.36
2019-02-16T14:20:15.302Z,101857.22
2019-02-16T14:22:43.726Z,101863.34
2019-02-16T14:25:13.902Z,101862.98
2019-02-16T14:27:42.330Z,101865.56
2019-02-16T14:30:12.300Z,101854.98
2019-02-16T14:32:40.802Z,101857.35
2019-02-16T14:35:09.590Z,101850.77
2019-02-16T14:37:39.671Z,101851.80
2019-02-16T14:40:08.757Z,101842.68
2019-02-16T14:42:37.129Z,101853.55
2019-02-16T14:45:10.846Z,101859.22
2019-02-16T14:47:39.372Z,101858.31
2019-02-16T14:50:09.739Z,101864.92
2019-02-16T14:52:38.236Z,101856.52
2019-02-16T14:55:15.074Z,101859.10
2019-02-16T14:57:43.562Z,101860.83
2019-02-16T15:00:13.035Z,101859.95
2019-02-16T15:02:41.555Z,101857.80
2019-02-16T15:05:10.520Z,101858.98
2019-02-16T15:07:38.999Z,101854.66
2019-02-16T15:10:14.245Z,101848.09
2019-02-16T15:12:42.767Z,101845.75
2019-02-16T15:15:11.894Z,101847.26
2019-02-16T15:17:40.339Z,101845.76
2019-02-16T15:20:16.831Z,101845.58
2019-02-16T15:22:45.298Z,101844.48
2019-02-16T15:25:13.872Z,101845.69
2019-02-16T15:27:42.616Z,101840.13
2019-02-16T15:30:14.443Z,101841.44
2019-02-16T15:32:43.147Z,101839.70
2019-02-16T15:35:11.938Z,101841.53
2019-02-16T15:37:40.592Z,101849.58
2019-02-16T15:40:10.654Z,101846.32
2019-02-16T15:42:39.291Z,101840.39
2019-02-16T15:45:10.704Z,101841.91
2019-02-16T15:47:39.239Z,101845.99
2019-02-16T15:50:10.214Z,101848.69
2019-02-16T15:52:38.736Z,101840.95
2019-02-16T15:55:09.644Z,101839.66
2019-02-16T15:57:38.182Z,101834.94
2019-02-16T16:00:17.987Z,101836.34
2019-02-16T16:02:46.585Z,101834.70
2019-02-16T16:05:15.259Z,101842.66
2019-02-16T16:07:45.398Z,101837.88
2019-02-16T16:10:18.319Z,101834.97
2019-02-16T16:13:03.347Z,101829.95
2019-02-16T16:15:42.323Z,101832.80
2019-02-16T16:18:11.151Z,101829.41
2019-02-16T16:20:47.232Z,101828.19
2019-02-16T16:23:17.372Z,101826.55
2019-02-16T16:25:56.127Z,101831.13
2019-02-16T16:28:35.402Z,101827.75
2019-02-16T16:31:17.251Z,101825.14
2019-02-16T16:34:02.489Z,101824.39
2019-02-16T16:36:32.635Z,101819.22
2019-02-16T16:39:19.314Z,101823.76
2019-02-16T16:41:55.406Z,101824.80
2019-02-16T16:44:25.507Z,101829.69
2019-02-16T16:46:55.573Z,101828.97
2019-02-16T16:49:28.798Z,101829.48
2019-02-16T16:52:15.208Z,101836.20
2019-02-16T16:54:45.384Z,101828.39
2019-02-16T16:57:21.497Z,101832.48
2019-02-16T16:59:51.587Z,101831.34
2019-02-16T17:02:39.585Z,101829.68
2019-02-16T17:05:12.830Z,101836.77
2019-02-16T17:07:54.874Z,101833.37
2019-02-16T17:10:30.458Z,101835.72
2019-02-16T17:13:06.527Z,101828.83
2019-02-16T17:15:54.746Z,101834.59
2019-02-16T17:18:24.817Z,101835.14
2019-02-16T17:20:57.723Z,101833.47
2019-02-16T17:23:33.520Z,101840.09
2019-02-16T17:26:21.831Z,101838.42
2019-02-16T17:28:51.907Z,101842.02
2019-02-16T17:31:22.037Z,101841.64
2019-02-16T17:34:04.237Z,101835.59
2019-02-16T17:36:49.628Z,101830.81
2019-02-16T17:39:25.148Z,101831.77
2019-02-16T17:41:55.268Z,101833.60
2019-02-16T17:44:41.818Z,101830.17
2019-02-16T17:47:21.100Z,101830.69
2019-02-16T17:50:09.299Z,101838.21
2019-02-16T17:52:54.290Z,101832.58
2019-02-16T17:55:24.374Z,101831.35
2019-02-16T17:58:06.672Z,101840.57
2019-02-16T18:00:36.760Z,101838.03
2019-02-16T18:03:18.856Z,101841.20
2019-02-16T18:05:48.966Z,101846.94
2019-02-16T18:08:28.368Z,101839.48
2019-02-16T18:11:10.554Z,101843.04
2019-02-16T18:13:56.786Z,101847.02
2019-02-16T18:16:44.904Z,101843.12
2019-02-16T18:19:14.994Z,101844.02
2019-02-16T18:21:46.461Z,101844.94
2019-02-16T18:24:16.743Z,101849.81
2019-02-16T18:26:56.474Z,101852.02
2019-02-16T18:29:27.319Z,101848.56
2019-02-16T18:31:59.791Z,101846.44
2019-02-16T18:34:29.945Z,101849.48
2019-02-16T18:37:15.938Z,101853.92
2019-02-16T18:39:49.192Z,101849.98
2019-02-16T18:42:36.909Z,101850.91
2019-02-16T18:45:16.170Z,101853.10
2019-02-16T18:47:46.237Z,101851.82
2019-02-16T18:50:16.416Z,101851.85
2019-02-16T18:52:46.501Z,101848.83
2019-02-16T18:55:16.766Z,101850.59
2019-02-16T18:57:46.952Z,101844.95
2019-02-16T19:00:20.245Z,101840.61
2019-02-16T19:02:56.095Z,101847.17
2019-02-16T19:05:37.522Z,101845.88
2019-02-16T19:08:09.946Z,101847.23
2019-02-16T19:10:51.599Z,101848.14
2019-02-16T19:13:30.790Z,101847.70
2019-02-16T19:16:00.889Z,101848.16
2019-02-16T19:18:33.712Z,101842.08
2019-02-16T19:21:10.001Z,101847.78
2019-02-16T19:23:46.165Z,101843.44
2019-02-16T19:26:16.273Z,101854.81
2019-02-16T19:28:58.364Z,101849.14
2019-02-16T19:31:46.937Z,101853.07
2019-02-16T19:34:17.098Z,101851.36
2019-02-16T19:36:50.514Z,101850.88
2019-02-16T19:39:20.714Z,101846.12
2019-02-16T19:41:50.862Z,101853.13
2019-02-16T19:44:20.984Z,101850.95
2019-02-16T19:47:00.044Z,101853.59
2019-02-16T19:49:42.159Z,101849.25
2019-02-16T19:52:15.344Z,101848.83
2019-02-16T19:54:47.852Z,101843.59
2019-02-16T19:57:26.919Z,101836.16
2019-02-16T20:00:02.485Z,101838.38
2019-02-16T20:02:32.757Z,101837.08
2019-02-16T20:05:20.957Z,101834.47
2019-02-16T20:07:54.077Z,101838.42
2019-02-16T20:10:29.731Z,101832.33
2019-02-16T20:12:59.841Z,101831.48
2019-02-16T20:15:42.017Z,101831.48
2019-02-16T20:18:14.838Z,101834.97
2019-02-16T20:21:01.206Z,101837.17
2019-02-16T20:23:37.265Z,101832.36
2019-02-16T20:26:10.660Z,101827.13
2019-02-16T20:28:49.838Z,101827.13
2019-02-16T20:31:19.999Z,101826.26
2019-02-16T20:34:02.160Z,101823.66
2019-02-16T20:36:32.237Z,101835.45
2019-02-16T20:39:17.730Z,101824.11
2019-02-16T20:41:53.751Z,101823.67
2019-02-16T20:44:40.139Z,101833.28
2019-02-16T20:47:19.505Z,101831.56
2019-02-16T20:49:52.586Z,101829.35
2019-02-16T20:52:22.660Z,101833.31
2019-02-16T20:55:01.245Z,101833.31
2019-02-16T20:57:31.351Z,101835.48
2019-02-16T21:00:01.451Z,101838.54
2019-02-16T21:02:31.501Z,101831.98
2019-02-16T21:05:07.082Z,101828.95
2019-02-16T21:07:53.383Z,101832.42
2019-02-16T21:10:40.149Z,101827.63
2019-02-16T21:13:10.326Z,101830.69
2019-02-16T21:15:40.439Z,101827.14
2019-02-16T21:18:19.557Z,101833.27
2019-02-16T21:20:49.666Z,101824.55
2019-02-16T21:23:31.536Z,101832.40
2019-02-16T21:26:17.070Z,101835.00
2019-02-16T21:28:47.166Z,101830.20
2019-02-16T21:31:20.039Z,101809.25
2019-02-16T21:33:55.948Z,101809.25
2019-02-16T21:36:26.055Z,101820.16
2019-02-16T21:39:03.177Z,101828.88
2019-02-16T21:41:47.222Z,101825.82
2019-02-16T21:44:33.542Z,101829.33
2019-02-16T21:47:06.063Z,101835.44
2019-02-16T21:49:48.460Z,101830.20
2019-02-16T21:52:19.011Z,101835.84
2019-02-16T21:54:49.142Z,101835.84
2019-02-16T21:57:21.727Z,101833.69
2019-02-16T22:00:08.339Z,101831.48
2019-02-16T22:02:38.391Z,101833.23
2019-02-16T22:05:24.164Z,101834.53
2019-02-16T22:08:09.290Z,101842.82
2019-02-16T22:10:55.657Z,101838.88
2019-02-16T22:13:24.121Z,101833.65
2019-02-16T22:15:52.710Z,101838.45
2019-02-16T22:18:21.130Z,101833.62
2019-02-16T22:20:49.598Z,101830.14
2019-02-16T22:23:18.075Z,101831.88
2019-02-16T22:25:46.546Z,101831.42
2019-02-16T22:28:18.800Z,101831.00
2019-02-16T22:30:45.185Z,101831.42
2019-02-16T22:33:13.618Z,101836.20
2019-02-16T22:35:42.166Z,101831.41
2019-02-16T22:38:10.630Z,101831.42
2019-02-16T22:40:39.094Z,101829.66
2019-02-16T22:43:07.531Z,101837.51
2019-02-16T22:45:35.970Z,101831.82
2019-02-16T22:48:04.389Z,101830.95
2019-02-16T22:50:32.966Z,101829.19
2019-02-16T22:53:04.248Z,101828.75
2019-02-16T22:55:32.709Z,101830.91
2019-02-16T22:58:01.297Z,101821.34
2019-02-16T23:00:37.532Z,101821.31
2019-02-16T23:03:07.299Z,101819.55
2019-02-16T23:05:35.933Z,101819.14
2019-02-16T23:08:04.708Z,101820.01
2019-02-16T23:10:33.408Z,101823.02
2019-02-16T23:13:01.902Z,101823.45
2019-02-16T23:15:30.426Z,101824.33
2019-02-16T23:17:58.917Z,101822.12
2019-02-16T23:20:28.878Z,101825.63
2019-02-16T23:22:57.314Z,101826.47
2019-02-16T23:25:25.827Z,101826.47
2019-02-16T23:27:54.272Z,101827.75
2019-02-16T23:30:22.831Z,101826.87
2019-02-16T23:32:51.356Z,101829.91
2019-02-16T23:35:19.865Z,101828.17
2019-02-16T23:37:48.376Z,101824.68
2019-02-16T23:40:16.880Z,101817.69
2019-02-16T23:42:45.528Z,101817.27
2019-02-16T23:45:14.107Z,101813.73
2019-02-16T23:47:42.792Z,101815.49
2019-02-16T23:50:12.841Z,101816.34
2019-02-16T23:52:41.367Z,101807.17
2019-02-16T23:55:10.831Z,101811.97
2019-02-16T23:57:39.363Z,101808.03
